aviador You're here:

LFGA Decoded Metar

COLMAR in FRANCE
Report Time2017-09-24 12:00:00
UTC Time2017-09-24 12:16:51
Flight Rules vfr VFR
Wind040° at 05 kt
W.Decomp.*RWY 01: 4.4 kt HW 2.4 kt RCW
W.Rank040° ranks 21
Current wind is above 040° avg. (4.9)
Visibility9999 m
Phenomena:N/A
Clouds:N/A
Expected CloudBase > 4,000 ft AGL from Temp-Dew spread
CeilingNone
Temp20°C
Dew Point10°C (53% RH)
AAT18.3°C
QNH1020 hPa
Raw Report
METAR LFGA 241200Z AUTO 04005KT 360V090 CAVOK 20/10 Q1020=

Extra information for LFGA:More info

Metar Taf Metar & Taf Last 4 Metars F.Rules Stats Wind Profile Meteogram Temp Stats Airport Information Weather charts Add Link Nearby VenuesMetar ALERT Operation Metar Decoded Social comments